Terminal Aerodrome Forecast
Issued by NWS Jackson, MS

Home | Current Version | Previous Version | Text Only | Print | Product List | Glossary On
Versions: 1 2 3 4 5 6 7 8 9 10 11 12 13 14 15 16 17 18
000
FTUS44 KJAN 011700
TAFGLH
TAF
KGLH 011722Z 0118/0218 04004KT P6SM FEW045 BKN060 OVC110
     FM020000 02004KT P6SM OVC100
     FM020600 00000KT 4SM BR SCT020 OVC040
     FM021400 01005KT P6SM OVC050=

USA.gov is the U.S. government's official web portal to all federal, state and local government web resources and services.